createdAt,value
2019-04-22T00:01:41.841Z,97474.52
2019-04-22T00:04:17.848Z,97474.80
2019-04-22T00:07:09.787Z,97471.49
2019-04-22T00:09:53.119Z,97472.53
2019-04-22T00:12:22.268Z,97471.83
2019-04-22T00:14:47.968Z,97471.48
2019-04-22T00:17:46.573Z,97464.44
2019-04-22T00:20:04.953Z,97454.95
2019-04-22T00:22:36.884Z,97461.41
2019-04-22T00:25:14.493Z,97462.30
2019-04-22T00:27:41.486Z,97460.16
2019-04-22T00:30:16.638Z,97460.37
2019-04-22T00:33:03.277Z,97466.42
2019-04-22T00:35:36.648Z,97465.79
2019-04-22T00:38:11.191Z,97468.55
2019-04-22T00:40:44.589Z,97457.42
2019-04-22T00:43:15.442Z,97454.97
2019-04-22T00:51:12.357Z,97449.05
2019-04-22T00:53:29.838Z,97446.16
2019-04-22T00:56:11.318Z,97447.34
2019-04-22T01:03:26.058Z,97439.77
2019-04-22T01:05:56.834Z,97438.89
2019-04-22T01:08:40.301Z,97440.32
2019-04-22T01:11:13.374Z,97437.80
2019-04-22T01:13:39.740Z,97429.64
2019-04-22T01:16:20.339Z,97420.84
2019-04-22T01:18:42.334Z,97421.19
2019-04-22T01:21:25.886Z,97425.97
2019-04-22T01:23:52.223Z,97422.31
2019-04-22T01:26:25.436Z,97424.44
2019-04-22T01:28:59.305Z,97420.18
2019-04-22T01:31:20.449Z,97423.16
2019-04-22T01:34:05.458Z,97416.55
2019-04-22T01:36:42.711Z,97407.64
2019-04-22T01:39:21.565Z,97403.69
2019-04-22T01:44:33.106Z,97405.33
2019-04-22T01:46:58.451Z,97404.72
2019-04-22T01:49:35.368Z,97401.66
2019-04-22T01:52:09.651Z,97396.40
2019-04-22T01:54:43.405Z,97402.16
2019-04-22T01:57:09.888Z,97388.78
2019-04-22T01:59:43.044Z,97390.38
2019-04-22T02:02:27.161Z,97383.94
2019-04-22T02:04:59.843Z,97387.11
2019-04-22T02:07:35.459Z,97381.48
2019-04-22T02:10:11.783Z,97374.34
2019-04-22T02:12:42.627Z,97380.59
2019-04-22T02:15:11.867Z,97370.80
2019-04-22T02:20:18.386Z,97362.13
2019-04-22T02:26:07.654Z,97365.77
2019-04-22T02:31:25.969Z,97358.83
2019-04-22T02:36:34.177Z,97357.55
2019-04-22T02:46:45.053Z,97347.11
2019-04-22T02:49:11.640Z,97345.16
2019-04-22T02:51:49.147Z,97339.94
2019-04-22T02:56:38.349Z,97330.36
2019-04-22T03:03:50.502Z,97333.81
2019-04-22T03:06:15.964Z,97334.55
2019-04-22T03:08:39.689Z,97329.62
2019-04-22T03:11:25.341Z,97321.03
2019-04-22T03:21:24.148Z,97319.28
2019-04-22T03:29:04.670Z,97315.69
2019-04-22T03:32:32.633Z,97317.48
2019-04-22T03:35:19.096Z,97314.98
2019-04-22T03:38:29.061Z,97309.43
2019-04-22T03:39:55.069Z,97309.34
2019-04-22T03:45:34.041Z,97297.28
2019-04-22T03:48:15.882Z,97300.27
2019-04-22T03:51:07.990Z,97297.16
2019-04-22T03:53:32.970Z,97293.20
2019-04-22T03:56:30.923Z,97298.78
2019-04-22T03:58:47.938Z,97290.30
2019-04-22T04:01:23.655Z,97288.92
2019-04-22T04:03:57.779Z,97279.42
2019-04-22T04:06:36.633Z,97278.69
2019-04-22T04:09:01.508Z,97282.70
2019-04-22T04:11:44.827Z,97280.87
2019-04-22T04:17:00.092Z,97269.76
2019-04-22T04:19:34.153Z,97268.00
2019-04-22T04:22:19.514Z,97273.34
2019-04-22T04:24:57.916Z,97265.70
2019-04-22T04:38:11.614Z,97255.58
2019-04-22T04:40:31.508Z,97249.72
2019-04-22T04:43:07.907Z,97246.33
2019-04-22T04:45:45.240Z,97247.75
2019-04-22T04:48:21.191Z,97237.08
2019-04-22T04:53:24.817Z,97234.97
2019-04-22T04:56:22.918Z,97238.17
2019-04-22T05:14:19.253Z,97234.16
2019-04-22T05:16:54.819Z,97233.95
2019-04-22T05:19:26.048Z,97229.53
2019-04-22T05:21:59.116Z,97234.20
2019-04-22T05:27:17.731Z,97236.78
2019-04-22T05:30:03.683Z,97227.61
2019-04-22T05:32:22.878Z,97226.83
2019-04-22T05:34:48.175Z,97221.63
2019-04-22T05:37:22.157Z,97224.09
2019-04-22T05:40:02.745Z,97226.09
2019-04-22T05:42:23.747Z,97226.72
2019-04-22T05:45:04.600Z,97224.99
2019-04-22T05:47:41.708Z,97223.23
2019-04-22T05:50:11.293Z,97217.63
2019-04-22T05:52:52.197Z,97218.86
2019-04-22T05:55:36.098Z,97215.48
2019-04-22T05:58:02.920Z,97208.84
2019-04-22T06:01:12.737Z,97210.95
2019-04-22T06:03:35.332Z,97209.30
2019-04-22T06:11:36.200Z,97211.08
2019-04-22T06:14:04.491Z,97212.38
2019-04-22T06:16:38.165Z,97208.56
2019-04-22T06:19:14.392Z,97209.02
2019-04-22T06:21:41.826Z,97204.48
2019-04-22T06:24:23.561Z,97201.63
2019-04-22T06:42:19.562Z,97189.47
2019-04-22T06:44:51.604Z,97187.53
2019-04-22T06:47:35.804Z,97181.56
2019-04-22T06:50:07.619Z,97183.70
2019-04-22T06:52:22.971Z,97186.77
2019-04-22T06:55:06.072Z,97183.66
2019-04-22T06:57:32.793Z,97185.51
2019-04-22T07:25:16.040Z,97151.68
2019-04-22T07:27:48.956Z,97158.13
2019-04-22T07:30:25.300Z,97155.88
2019-04-22T07:35:33.639Z,97147.78
2019-04-22T07:37:55.616Z,97151.30
2019-04-22T07:40:37.390Z,97144.70
2019-04-22T07:43:09.117Z,97146.27
2019-04-22T07:45:35.874Z,97141.38
2019-04-22T07:48:13.013Z,97131.49
2019-04-22T07:50:52.115Z,97133.67
2019-04-22T07:53:08.470Z,97132.55
2019-04-22T07:55:38.184Z,97133.07
2019-04-22T08:00:43.764Z,97131.25
2019-04-22T08:03:33.774Z,97133.30
2019-04-22T08:05:58.781Z,97131.25
2019-04-22T08:08:38.955Z,97124.48
2019-04-22T08:11:06.265Z,97117.16
2019-04-22T08:13:31.526Z,97119.26
2019-04-22T08:18:34.320Z,97117.11
2019-04-22T08:21:06.391Z,97107.76
2019-04-22T08:26:09.870Z,97097.70
2019-04-22T08:28:49.097Z,97094.46
2019-04-22T08:31:16.277Z,97094.36
2019-04-22T08:33:49.659Z,97085.14
2019-04-22T08:36:23.317Z,97076.41
2019-04-22T08:38:55.851Z,97078.39
2019-04-22T08:44:01.234Z,97072.63
2019-04-22T08:46:33.130Z,97079.45
2019-04-22T08:49:05.688Z,97079.84
2019-04-22T08:51:36.250Z,97071.34
2019-04-22T08:56:45.625Z,97067.74
2019-04-22T09:14:34.216Z,97044.95
2019-04-22T09:17:22.676Z,97039.45
2019-04-22T09:20:07.790Z,97033.02
2019-04-22T09:22:45.408Z,97029.39
2019-04-22T09:25:26.956Z,97023.50
2019-04-22T09:28:23.270Z,97026.24
2019-04-22T09:31:11.437Z,97020.64
2019-04-22T09:33:53.286Z,97018.59
2019-04-22T09:36:50.391Z,97013.28
2019-04-22T09:39:59.862Z,97010.36
2019-04-22T09:42:39.636Z,96999.13
2019-04-22T09:45:43.349Z,96999.58
2019-04-22T09:48:31.898Z,96987.70
2019-04-22T09:51:31.136Z,96979.94
2019-04-22T09:54:43.748Z,96981.71
2019-04-22T09:57:12.007Z,96982.81
2019-04-22T10:00:03.340Z,96980.30
2019-04-22T10:03:00.734Z,96978.48
2019-04-22T10:05:51.027Z,96972.92
2019-04-22T10:08:31.969Z,96971.33
2019-04-22T10:10:56.660Z,96973.28
2019-04-22T10:13:49.095Z,96967.36
2019-04-22T10:16:31.355Z,96962.81
2019-04-22T10:19:30.064Z,96952.52
2019-04-22T10:22:12.147Z,96953.84
2019-04-22T10:25:01.697Z,96944.47
2019-04-22T10:53:40.019Z,96888.23
2019-04-22T10:57:04.974Z,96892.33
2019-04-22T11:18:45.662Z,96857.08
2019-04-22T11:21:41.332Z,96852.51
2019-04-22T11:24:44.685Z,96841.01
2019-04-22T11:28:19.944Z,96845.45
2019-04-22T11:31:24.150Z,96838.20
2019-04-22T11:34:44.857Z,96832.38
2019-04-22T11:37:30.074Z,96835.49
2019-04-22T11:40:43.606Z,96824.47
2019-04-22T11:43:38.977Z,96828.78
2019-04-22T11:46:51.706Z,96830.05
2019-04-22T11:49:49.974Z,96825.91
2019-04-22T11:52:22.718Z,96816.41
2019-04-22T11:58:39.491Z,96810.33
2019-04-22T12:01:40.162Z,96797.67
2019-04-22T12:04:54.065Z,96795.44
2019-04-22T12:08:21.238Z,96794.63
2019-04-22T12:11:23.511Z,96790.55
2019-04-22T12:25:28.024Z,96765.17
2019-04-22T12:31:55.597Z,96761.60
2019-04-22T12:35:17.645Z,96751.58
2019-04-22T12:38:18.493Z,96752.92
2019-04-22T12:41:46.319Z,96743.44
2019-04-22T12:45:22.385Z,96736.84
2019-04-22T12:48:23.247Z,96741.45
2019-04-22T12:51:24.952Z,96725.11
2019-04-22T12:54:58.245Z,96721.09
2019-04-22T13:04:19.930Z,96707.52
2019-04-22T13:07:26.579Z,96702.61
2019-04-22T13:10:21.960Z,96688.83
2019-04-22T13:13:18.920Z,96697.03
2019-04-22T13:16:15.462Z,96697.01
2019-04-22T13:19:11.691Z,96690.70
2019-04-22T13:22:00.942Z,96692.02
2019-04-22T13:28:36.776Z,96687.67
2019-04-22T13:31:28.876Z,96677.24
2019-04-22T13:34:53.383Z,96677.83
2019-04-22T13:37:28.576Z,96681.99
2019-04-22T13:40:25.186Z,96678.15
2019-04-22T13:47:14.616Z,96667.66
2019-04-22T13:51:20.787Z,96664.89
2019-04-22T13:57:53.897Z,96652.00
2019-04-22T14:01:46.317Z,96651.09
2019-04-22T14:04:05.007Z,96647.41
2019-04-22T14:07:20.944Z,96642.47
2019-04-22T14:10:14.249Z,96634.53
2019-04-22T14:16:49.135Z,96623.80
2019-04-22T14:19:29.893Z,96618.00
2019-04-22T14:22:38.812Z,96609.44
2019-04-22T14:33:53.628Z,96593.73
2019-04-22T14:45:50.738Z,96582.60
2019-04-22T14:49:02.766Z,96578.94
2019-04-22T14:52:50.702Z,96572.41
2019-04-22T14:55:50.497Z,96566.17
2019-04-22T14:59:16.762Z,96559.16
2019-04-22T15:20:13.945Z,96547.50
2019-04-22T15:23:44.526Z,96546.23
2019-04-22T15:27:20.321Z,96537.72
2019-04-22T15:33:45.226Z,96530.64
2019-04-22T15:36:46.462Z,96524.50
2019-04-22T15:40:06.855Z,96522.02
2019-04-22T15:43:49.988Z,96525.05
2019-04-22T15:50:08.106Z,96514.77
2019-04-22T15:53:20.053Z,96507.80
2019-04-22T15:55:50.669Z,96507.54
2019-04-22T15:58:21.861Z,96505.14
2019-04-22T16:01:05.313Z,96507.47
2019-04-22T16:03:24.818Z,96494.37
2019-04-22T16:05:55.216Z,96496.86
2019-04-22T16:08:26.719Z,96491.25
2019-04-22T16:10:57.760Z,96493.23
2019-04-22T16:13:31.924Z,96487.18
2019-04-22T16:16:00.667Z,96489.88
2019-04-22T16:18:32.475Z,96490.03
2019-04-22T16:21:03.065Z,96487.83
2019-04-22T16:23:46.630Z,96490.65
2019-04-22T16:26:21.986Z,96483.34
2019-04-22T16:28:55.918Z,96475.66
2019-04-22T16:31:27.050Z,96486.11
2019-04-22T16:33:58.415Z,96468.97
2019-04-22T16:36:31.041Z,96473.45
2019-04-22T16:39:04.684Z,96469.10
2019-04-22T16:41:35.175Z,96466.56
2019-04-22T16:44:06.935Z,96465.13
2019-04-22T16:46:37.550Z,96459.81
2019-04-22T16:49:09.694Z,96460.33
2019-04-22T16:51:40.313Z,96460.27
2019-04-22T16:54:11.777Z,96459.89
2019-04-22T16:56:43.907Z,96458.31
2019-04-22T16:59:14.902Z,96458.48
2019-04-22T17:03:28.995Z,96449.55
2019-04-22T17:06:19.299Z,96456.00
2019-04-22T17:08:50.909Z,96457.75
2019-04-22T17:11:22.161Z,96458.30
2019-04-22T17:13:53.018Z,96442.26
2019-04-22T17:16:24.398Z,96453.84
2019-04-22T17:18:56.344Z,96450.55
2019-04-22T17:21:27.770Z,96456.20
2019-04-22T17:23:59.299Z,96452.71
2019-04-22T17:26:30.417Z,96449.65
2019-04-22T17:29:03.111Z,96451.07
2019-04-22T17:31:34.424Z,96451.91
2019-04-22T17:34:06.703Z,96455.34
2019-04-22T17:36:38.291Z,96448.22
2019-04-22T17:39:22.837Z,96461.35
2019-04-22T17:42:06.939Z,96460.75
2019-04-22T17:44:42.680Z,96450.91
2019-04-22T17:47:23.629Z,96450.07
2019-04-22T17:50:10.647Z,96455.79
2019-04-22T17:52:39.230Z,96450.71
2019-04-22T17:55:04.579Z,96448.48
2019-04-22T17:57:38.417Z,96456.41
2019-04-22T18:00:11.815Z,96456.91
2019-04-22T18:02:39.795Z,96452.17
2019-04-22T18:05:02.047Z,96456.87
2019-04-22T18:07:54.888Z,96466.08
2019-04-22T18:12:59.933Z,96460.38
2019-04-22T18:15:23.985Z,96462.13
2019-04-22T18:18:41.743Z,96453.41
2019-04-22T18:21:32.039Z,96459.27
2019-04-22T18:24:20.043Z,96457.48
2019-04-22T18:27:29.023Z,96461.78
2019-04-22T18:29:43.479Z,96460.09
2019-04-22T18:32:10.105Z,96455.69
2019-04-22T18:34:55.543Z,96454.67
2019-04-22T18:37:42.474Z,96457.92
2019-04-22T18:43:03.622Z,96459.97
2019-04-22T18:48:33.449Z,96462.41
2019-04-22T18:51:20.364Z,96462.50
2019-04-22T18:54:01.955Z,96457.50
2019-04-22T18:56:37.667Z,96452.55
2019-04-22T18:58:53.730Z,96458.22
2019-04-22T19:03:08.911Z,96449.89
2019-04-22T19:05:54.293Z,96449.17
2019-04-22T19:08:28.570Z,96450.67
2019-04-22T19:19:07.712Z,96439.66
2019-04-22T19:23:57.934Z,96442.66
2019-04-22T19:26:42.548Z,96445.38
2019-04-22T19:34:28.457Z,96442.94
2019-04-22T19:37:02.133Z,96440.52
2019-04-22T19:39:34.130Z,96436.84
2019-04-22T19:42:20.588Z,96439.95
2019-04-22T19:44:47.056Z,96441.15
2019-04-22T19:47:38.867Z,96438.80
2019-04-22T19:50:01.025Z,96432.96
2019-04-22T19:52:37.008Z,96433.75
2019-04-22T19:55:07.640Z,96437.28
2019-04-22T19:57:48.936Z,96434.22
2019-04-22T20:00:28.779Z,96428.31
2019-04-22T20:03:20.439Z,96433.33
2019-04-22T20:05:53.055Z,96421.97
2019-04-22T20:08:26.756Z,96428.31
2019-04-22T20:10:51.171Z,96425.42
2019-04-22T20:13:33.512Z,96425.03
2019-04-22T20:15:54.031Z,96414.93
2019-04-22T20:18:47.718Z,96416.58
2019-04-22T20:21:12.631Z,96420.63
2019-04-22T20:23:34.889Z,96416.08
2019-04-22T20:26:10.480Z,96410.30
2019-04-22T20:28:51.257Z,96410.01
2019-04-22T20:31:20.154Z,96406.28
2019-04-22T20:34:01.376Z,96412.09
2019-04-22T20:36:44.910Z,96410.22
2019-04-22T20:38:58.126Z,96419.80
2019-04-22T20:41:31.466Z,96407.53
2019-04-22T20:44:13.328Z,96406.67
2019-04-22T20:46:40.506Z,96404.37
2019-04-22T20:49:17.311Z,96407.35
2019-04-22T20:51:54.365Z,96404.67
2019-04-22T20:54:17.697Z,96397.88
2019-04-22T20:56:50.933Z,96395.75
2019-04-22T20:59:25.677Z,96398.44
2019-04-22T21:14:06.212Z,96380.86
2019-04-22T21:16:43.170Z,96379.58
2019-04-22T21:19:21.634Z,96378.63
2019-04-22T21:21:50.320Z,96376.83
2019-04-22T21:24:18.635Z,96375.88
2019-04-22T21:26:49.820Z,96375.77
2019-04-22T21:29:20.495Z,96374.98
2019-04-22T21:31:57.831Z,96381.38
2019-04-22T21:34:26.274Z,96372.84
2019-04-22T21:37:07.550Z,96372.84
2019-04-22T21:39:33.801Z,96371.25
2019-04-22T21:41:58.869Z,96370.07
2019-04-22T21:44:33.959Z,96369.01
2019-04-22T21:47:16.023Z,96358.59
2019-04-22T21:49:44.854Z,96361.95
2019-04-22T21:52:14.178Z,96355.88
2019-04-22T21:54:50.148Z,96351.98
2019-04-22T21:57:28.043Z,96350.07
2019-04-22T22:00:10.571Z,96347.63
2019-04-22T22:02:43.311Z,96338.27
2019-04-22T22:05:07.501Z,96332.28
2019-04-22T22:07:26.896Z,96329.69
2019-04-22T22:10:16.905Z,96334.18
2019-04-22T22:12:48.298Z,96334.19
2019-04-22T22:15:18.674Z,96334.03
2019-04-22T22:17:50.405Z,96329.36
2019-04-22T22:20:17.229Z,96313.26
2019-04-22T22:23:00.330Z,96320.52
2019-04-22T22:25:28.041Z,96320.12
2019-04-22T22:27:53.411Z,96314.30
2019-04-22T22:30:51.405Z,96318.38
2019-04-22T22:33:05.694Z,96313.95
2019-04-22T22:35:36.034Z,96306.30
2019-04-22T22:40:27.694Z,96305.44
2019-04-22T22:42:56.989Z,96305.91
2019-04-22T22:45:33.849Z,96306.28
2019-04-22T22:48:25.288Z,96303.45
2019-04-22T22:50:47.664Z,96301.17
2019-04-22T22:55:54.825Z,96299.28
2019-04-22T22:58:27.508Z,96299.13
2019-04-22T23:03:40.617Z,96300.08
2019-04-22T23:06:00.601Z,96285.87
2019-04-22T23:08:34.377Z,96281.78
2019-04-22T23:13:55.174Z,96280.50
2019-04-22T23:15:58.380Z,96271.45
2019-04-22T23:18:16.208Z,96277.41
2019-04-22T23:20:49.617Z,96279.39
2019-04-22T23:23:38.256Z,96278.76
2019-04-22T23:26:14.043Z,96275.77
2019-04-22T23:28:43.572Z,96272.77
2019-04-22T23:31:21.038Z,96268.59
2019-04-22T23:34:18.408Z,96270.23
2019-04-22T23:37:21.923Z,96266.47
2019-04-22T23:40:13.463Z,96267.95
2019-04-22T23:42:41.041Z,96269.30
2019-04-22T23:45:12.340Z,96260.45
2019-04-22T23:47:32.432Z,96251.55
2019-04-22T23:50:09.602Z,96243.41
2019-04-22T23:52:47.939Z,96247.02
2019-04-22T23:55:20.505Z,96243.23
2019-04-22T23:57:50.526Z,96239.56
